PWSweather.com
Personal Weather Stations
Station Observations
SEVANL01
SevillaES 41004

SevillaES 41004

Lat: 37.383633, Lon: -5.985787

Elevation: 19.685

Station Type: Davis Vantage Pro2

www.tiempoensevilla.es

High Low Average
Temperature 55.5°F13.1°C 47.2°F8.4°C 50.8°F10.4°C
Dew Point 53.2°F11.8°C 41.6°F5.3°C 47.2°F8.4°C
Winds 7.0 mph 11.3 kmh Calm Calm 2.0 mph S3.2 kmh S
Wind Gusts 18.0 mph29.0 kmh -- 6.0 mph9.7 kmh
Humidity 93% 64% 87%
Pressure 30.11 in1019.6 mb 29.88 in1011.9 mb -
Precipitation 0.22 in5.6 mm - -
Hour Temp Dew Point Humidity Winds Wind Gusts Pressure Precip Precip Rate Daily Precip Total
12:00 AM 53.5°F11.9°C 41.6°F5.3°C 64% 1.0 mph W1.6 kmh W 3.0 mph4.8 kmh 30.11 in1019.6 mb 0.00 in0.0 mm 0.00 in0.0 mm 0.00 in0.0 mm
12:20 AM 53.1°F11.7°C 42.4°F5.8°C 67% 1.0 mph W1.6 kmh W 4.0 mph6.4 kmh 30.11 in1019.6 mb 0.00 in0.0 mm 0.00 in0.0 mm 0.00 in0.0 mm
12:40 AM 52.7°F11.5°C 42.8°F6.0°C 69% 1.0 mph W1.6 kmh W 3.0 mph4.8 kmh 30.11 in1019.6 mb 0.00 in0.0 mm 0.00 in0.0 mm 0.00 in0.0 mm
01:00 AM 52.6°F11.4°C 43.1°F6.2°C 70% 1.0 mph W1.6 kmh W 7.0 mph11.3 kmh 30.11 in1019.6 mb 0.00 in0.0 mm 0.00 in0.0 mm 0.00 in0.0 mm
01:20 AM 51.6°F10.9°C 43.6°F6.4°C 74% 2.0 mph W3.2 kmh W 7.0 mph11.3 kmh 30.11 in1019.6 mb 0.00 in0.0 mm 0.00 in0.0 mm 0.00 in0.0 mm
01:40 AM 50.7°F10.4°C 43.4°F6.3°C 76% 3.0 mph WSW4.8 kmh WSW 7.0 mph11.3 kmh 30.10 in1019.3 mb 0.00 in0.0 mm 0.00 in0.0 mm 0.00 in0.0 mm
02:00 AM 49.7°F9.8°C 43.5°F6.4°C 79% 3.5 mph WSW5.6 kmh WSW 9.0 mph14.5 kmh 30.10 in1019.3 mb 0.00 in0.0 mm 0.00 in0.0 mm 0.00 in0.0 mm
02:20 AM 49.1°F9.5°C 44.2°F6.8°C 83% 3.1 mph WSW5.0 kmh WSW 8.0 mph12.9 kmh 30.10 in1019.3 mb 0.01 in0.3 mm 0.03 in0.8 mm 0.01 in0.3 mm
02:40 AM 48.8°F9.3°C 44.8°F7.1°C 86% 1.3 mph WSW2.1 kmh WSW 3.0 mph4.8 kmh 30.09 in1019.0 mb 0.03 in0.8 mm 0.06 in1.5 mm 0.03 in0.8 mm
03:00 AM 48.6°F9.2°C 44.9°F7.2°C 87% Calm Calm -- 30.09 in1019.0 mb 0.04 in1.0 mm 0.02 in0.5 mm 0.04 in1.0 mm
03:20 AM 48.5°F9.2°C 45.1°F7.3°C 88% Calm Calm -- 30.09 in1019.0 mb 0.04 in1.0 mm 0.00 in0.0 mm 0.05 in1.3 mm
03:40 AM 48.5°F9.2°C 45.4°F7.4°C 89% Calm Calm -- 30.09 in1019.0 mb 0.02 in0.5 mm 0.00 in0.0 mm 0.06 in1.5 mm
04:00 AM 48.5°F9.2°C 45.4°F7.4°C 89% Calm Calm -- 30.08 in1018.6 mb 0.02 in0.5 mm 0.00 in0.0 mm 0.06 in1.5 mm
04:20 AM 48.4°F9.1°C 45.3°F7.4°C 89% 0.2 mph SW0.3 kmh SW 3.0 mph4.8 kmh 30.07 in1018.3 mb 0.02 in0.5 mm 0.00 in0.0 mm 0.06 in1.5 mm
04:40 AM 48.4°F9.1°C 45.6°F7.6°C 90% 1.2 mph SSE1.9 kmh SSE 3.0 mph4.8 kmh 30.07 in1018.3 mb 0.02 in0.5 mm 0.00 in0.0 mm 0.07 in1.8 mm
05:00 AM 48.1°F8.9°C 45.3°F7.4°C 90% 1.0 mph SE1.6 kmh SE 3.0 mph4.8 kmh 30.07 in1018.3 mb 0.02 in0.5 mm 0.00 in0.0 mm 0.08 in2.0 mm
05:20 AM 48.1°F8.9°C 45.3°F7.4°C 90% Calm Calm -- 30.06 in1017.9 mb 0.02 in0.5 mm 0.00 in0.0 mm 0.09 in2.3 mm
05:40 AM 48.4°F9.1°C 45.9°F7.7°C 91% Calm Calm -- 30.06 in1017.9 mb 0.02 in0.5 mm 0.00 in0.0 mm 0.09 in2.3 mm
06:00 AM 48.2°F9.0°C 45.7°F7.6°C 91% 1.5 mph E2.4 kmh E 5.0 mph8.0 kmh 30.06 in1017.9 mb 0.01 in0.3 mm 0.00 in0.0 mm 0.09 in2.3 mm
06:20 AM 47.8°F8.8°C 45.3°F7.4°C 91% 2.6 mph ENE4.2 kmh ENE 6.0 mph9.7 kmh 30.05 in1017.6 mb 0.01 in0.3 mm 0.00 in0.0 mm 0.09 in2.3 mm
06:40 AM 47.6°F8.7°C 45.1°F7.3°C 91% 3.0 mph NE4.8 kmh NE 7.0 mph11.3 kmh 30.05 in1017.6 mb 0.01 in0.3 mm 0.00 in0.0 mm 0.09 in2.3 mm
07:00 AM 47.6°F8.7°C 45.4°F7.4°C 92% 3.8 mph ENE6.1 kmh ENE 6.0 mph9.7 kmh 30.05 in1017.6 mb 0.01 in0.3 mm 0.00 in0.0 mm 0.09 in2.3 mm
07:20 AM 47.5°F8.6°C 45.3°F7.4°C 92% 3.0 mph NE4.8 kmh NE 6.0 mph9.7 kmh 30.05 in1017.6 mb 0.00 in0.0 mm 0.00 in0.0 mm 0.09 in2.3 mm
07:40 AM 47.7°F8.7°C 45.5°F7.5°C 92% 3.0 mph NE4.8 kmh NE 5.0 mph8.0 kmh 30.05 in1017.6 mb 0.00 in0.0 mm 0.00 in0.0 mm 0.09 in2.3 mm
08:00 AM 47.6°F8.7°C 45.4°F7.4°C 92% 4.0 mph NE6.4 kmh NE 8.0 mph12.9 kmh 30.06 in1017.9 mb 0.00 in0.0 mm 0.00 in0.0 mm 0.09 in2.3 mm
08:20 AM 47.5°F8.6°C 45.3°F7.4°C 92% 3.1 mph NE5.0 kmh NE 8.0 mph12.9 kmh 30.06 in1017.9 mb 0.00 in0.0 mm 0.00 in0.0 mm 0.09 in2.3 mm
08:40 AM 47.4°F8.6°C 44.9°F7.2°C 91% 4.1 mph NNE6.6 kmh NNE 8.0 mph12.9 kmh 30.07 in1018.3 mb 0.00 in0.0 mm 0.00 in0.0 mm 0.09 in2.3 mm
09:00 AM 47.4°F8.6°C 44.9°F7.2°C 91% 3.3 mph NNE5.3 kmh NNE 6.0 mph9.7 kmh 30.08 in1018.6 mb 0.00 in0.0 mm 0.00 in0.0 mm 0.09 in2.3 mm
09:20 AM 47.2°F8.4°C 44.7°F7.1°C 91% 3.9 mph ENE6.3 kmh ENE 8.0 mph12.9 kmh 30.08 in1018.6 mb 0.00 in0.0 mm 0.00 in0.0 mm 0.09 in2.3 mm
09:40 AM 47.4°F8.6°C 45.2°F7.3°C 92% 3.0 mph ENE4.8 kmh ENE 7.0 mph11.3 kmh 30.08 in1018.6 mb 0.00 in0.0 mm 0.00 in0.0 mm 0.09 in2.3 mm
10:00 AM 47.9°F8.8°C 45.4°F7.4°C 91% 4.1 mph E6.6 kmh E 8.0 mph12.9 kmh 30.07 in1018.3 mb 0.00 in0.0 mm 0.00 in0.0 mm 0.09 in2.3 mm
10:20 AM 48.1°F8.9°C 45.6°F7.6°C 91% 1.5 mph E2.4 kmh E 6.0 mph9.7 kmh 30.09 in1019.0 mb 0.00 in0.0 mm 0.00 in0.0 mm 0.09 in2.3 mm
10:40 AM 48.7°F9.3°C 46.2°F7.9°C 91% 0.3 mph E0.5 kmh E 2.0 mph3.2 kmh 30.11 in1019.6 mb 0.00 in0.0 mm 0.00 in0.0 mm 0.09 in2.3 mm
11:00 AM 49.0°F9.4°C 46.2°F7.9°C 90% 1.3 mph NW2.1 kmh NW 2.0 mph3.2 kmh 30.10 in1019.3 mb 0.00 in0.0 mm 0.00 in0.0 mm 0.09 in2.3 mm
11:20 AM 49.5°F9.7°C 46.4°F8.0°C 89% 0.5 mph E0.8 kmh E 2.0 mph3.2 kmh 30.11 in1019.6 mb 0.00 in0.0 mm 0.00 in0.0 mm 0.09 in2.3 mm
11:40 AM 49.7°F9.8°C 46.3°F7.9°C 88% 0.7 mph 1.1 kmh -- 30.11 in1019.6 mb 0.00 in0.0 mm 0.00 in0.0 mm 0.09 in2.3 mm
12:00 PM 50.1°F10.1°C 46.4°F8.0°C 87% Calm Calm 3.0 mph4.8 kmh 30.11 in1019.6 mb 0.00 in0.0 mm 0.00 in0.0 mm 0.09 in2.3 mm
12:20 PM 50.0°F10.0°C 46.0°F7.8°C 86% 2.3 mph WSW3.7 kmh WSW 4.0 mph6.4 kmh 30.11 in1019.6 mb 0.00 in0.0 mm 0.00 in0.0 mm 0.09 in2.3 mm
12:40 PM 50.5°F10.3°C 46.8°F8.2°C 87% 1.4 mph WSW2.3 kmh WSW 4.0 mph6.4 kmh 30.10 in1019.3 mb 0.00 in0.0 mm 0.00 in0.0 mm 0.09 in2.3 mm
01:00 PM 50.8°F10.4°C 46.8°F8.2°C 86% 1.0 mph SSW1.6 kmh SSW 4.0 mph6.4 kmh 30.10 in1019.3 mb 0.00 in0.0 mm 0.00 in0.0 mm 0.09 in2.3 mm
01:20 PM 50.8°F10.4°C 46.8°F8.2°C 86% 1.9 mph WSW3.1 kmh WSW 4.0 mph6.4 kmh 30.09 in1019.0 mb 0.00 in0.0 mm 0.00 in0.0 mm 0.09 in2.3 mm
01:40 PM 51.0°F10.6°C 46.6°F8.1°C 85% 2.0 mph WSW3.2 kmh WSW 4.0 mph6.4 kmh 30.09 in1019.0 mb 0.00 in0.0 mm 0.00 in0.0 mm 0.09 in2.3 mm
02:00 PM 51.4°F10.8°C 47.0°F8.3°C 85% 1.4 mph SSW2.3 kmh SSW 4.0 mph6.4 kmh 30.08 in1018.6 mb 0.00 in0.0 mm 0.00 in0.0 mm 0.09 in2.3 mm
02:20 PM 51.5°F10.8°C 47.1°F8.4°C 85% 2.0 mph SW3.2 kmh SW 5.0 mph8.0 kmh 30.07 in1018.3 mb 0.00 in0.0 mm 0.00 in0.0 mm 0.09 in2.3 mm
02:40 PM 51.9°F11.1°C 47.2°F8.4°C 84% 3.4 mph WSW5.5 kmh WSW 8.0 mph12.9 kmh 30.06 in1017.9 mb 0.00 in0.0 mm 0.00 in0.0 mm 0.09 in2.3 mm
03:00 PM 52.3°F11.3°C 47.9°F8.8°C 85% 2.0 mph SW3.2 kmh SW 6.0 mph9.7 kmh 30.05 in1017.6 mb 0.00 in0.0 mm 0.00 in0.0 mm 0.09 in2.3 mm
03:20 PM 52.2°F11.2°C 48.1°F8.9°C 86% 3.0 mph SW4.8 kmh SW 7.0 mph11.3 kmh 30.04 in1017.3 mb 0.00 in0.0 mm 0.00 in0.0 mm 0.09 in2.3 mm
03:40 PM 52.2°F11.2°C 48.1°F8.9°C 86% 2.4 mph S3.9 kmh S 6.0 mph9.7 kmh 30.02 in1016.6 mb 0.00 in0.0 mm 0.00 in0.0 mm 0.09 in2.3 mm
04:00 PM 52.5°F11.4°C 48.4°F9.1°C 86% 2.2 mph SSW3.5 kmh SSW 7.0 mph11.3 kmh 30.03 in1016.9 mb 0.00 in0.0 mm 0.00 in0.0 mm 0.09 in2.3 mm
04:20 PM 52.6°F11.4°C 48.5°F9.2°C 86% 2.6 mph SSW4.2 kmh SSW 7.0 mph11.3 kmh 30.02 in1016.6 mb 0.00 in0.0 mm 0.00 in0.0 mm 0.09 in2.3 mm
04:40 PM 52.3°F11.3°C 48.9°F9.4°C 88% 2.9 mph SSW4.7 kmh SSW 6.0 mph9.7 kmh 30.02 in1016.6 mb 0.00 in0.0 mm 0.00 in0.0 mm 0.09 in2.3 mm
05:00 PM 52.2°F11.2°C 49.1°F9.5°C 89% 2.4 mph SW3.9 kmh SW 7.0 mph11.3 kmh 30.01 in1016.3 mb 0.00 in0.0 mm 0.00 in0.0 mm 0.09 in2.3 mm
05:20 PM 52.2°F11.2°C 49.4°F9.7°C 90% 2.2 mph SSW3.5 kmh SSW 5.0 mph8.0 kmh 30.01 in1016.3 mb 0.00 in0.0 mm 0.00 in0.0 mm 0.09 in2.3 mm
05:40 PM 52.2°F11.2°C 49.4°F9.7°C 90% 2.0 mph S3.2 kmh S 8.0 mph12.9 kmh 30.00 in1015.9 mb 0.00 in0.0 mm 0.00 in0.0 mm 0.09 in2.3 mm
06:00 PM 52.2°F11.2°C 49.4°F9.7°C 90% 2.4 mph S3.9 kmh S 7.0 mph11.3 kmh 30.00 in1015.9 mb 0.00 in0.0 mm 0.00 in0.0 mm 0.09 in2.3 mm
06:20 PM 52.3°F11.3°C 49.5°F9.7°C 90% 2.5 mph SW4.0 kmh SW 9.0 mph14.5 kmh 29.99 in1015.6 mb 0.00 in0.0 mm 0.00 in0.0 mm 0.09 in2.3 mm
06:40 PM 52.5°F11.4°C 49.7°F9.8°C 90% 3.4 mph SSW5.5 kmh SSW 6.0 mph9.7 kmh 29.98 in1015.2 mb 0.00 in0.0 mm 0.00 in0.0 mm 0.09 in2.3 mm
07:00 PM 52.7°F11.5°C 49.5°F9.7°C 89% 2.7 mph S4.3 kmh S 5.0 mph8.0 kmh 29.98 in1015.2 mb 0.00 in0.0 mm 0.00 in0.0 mm 0.09 in2.3 mm
07:20 PM 53.0°F11.7°C 49.8°F9.9°C 89% 2.2 mph S3.5 kmh S 6.0 mph9.7 kmh 29.97 in1014.9 mb 0.00 in0.0 mm 0.00 in0.0 mm 0.09 in2.3 mm
07:40 PM 53.2°F11.8°C 50.0°F10.0°C 89% 3.0 mph S4.8 kmh S 9.0 mph14.5 kmh 29.96 in1014.6 mb 0.00 in0.0 mm 0.00 in0.0 mm 0.09 in2.3 mm
08:00 PM 53.4°F11.9°C 50.2°F10.1°C 89% 2.4 mph S3.9 kmh S 7.0 mph11.3 kmh 29.96 in1014.6 mb 0.00 in0.0 mm 0.00 in0.0 mm 0.09 in2.3 mm
08:20 PM 53.7°F12.1°C 50.5°F10.3°C 89% 3.0 mph S4.8 kmh S 8.0 mph12.9 kmh 29.95 in1014.2 mb 0.00 in0.0 mm 0.00 in0.0 mm 0.09 in2.3 mm
08:40 PM 53.9°F12.2°C 51.0°F10.6°C 90% 2.3 mph SW3.7 kmh SW 6.0 mph9.7 kmh 29.95 in1014.2 mb 0.00 in0.0 mm 0.00 in0.0 mm 0.09 in2.3 mm
09:00 PM 54.1°F12.3°C 51.5°F10.8°C 91% 2.9 mph SW4.7 kmh SW 6.0 mph9.7 kmh 29.95 in1014.2 mb 0.00 in0.0 mm 0.00 in0.0 mm 0.09 in2.3 mm
09:20 PM 54.2°F12.3°C 51.6°F10.9°C 91% 2.7 mph S4.3 kmh S 5.0 mph8.0 kmh 29.93 in1013.5 mb 0.02 in0.5 mm 0.06 in1.5 mm 0.12 in3.0 mm
09:40 PM 54.5°F12.5°C 52.2°F11.2°C 92% 3.1 mph SSW5.0 kmh SSW 9.0 mph14.5 kmh 29.92 in1013.2 mb 0.06 in1.5 mm 0.12 in3.0 mm 0.16 in4.1 mm
10:00 PM 54.8°F12.7°C 52.8°F11.6°C 93% 5.2 mph SW8.4 kmh SW 14.0 mph22.5 kmh 29.89 in1012.2 mb 0.09 in2.3 mm 0.05 in1.3 mm 0.18 in4.6 mm
10:20 PM 55.1°F12.8°C 52.8°F11.6°C 92% 7.0 mph SW11.3 kmh SW 18.0 mph29.0 kmh 29.90 in1012.5 mb 0.06 in1.5 mm 0.00 in0.0 mm 0.19 in4.8 mm
10:40 PM 55.4°F13.0°C 53.1°F11.7°C 92% 6.4 mph SW10.3 kmh SW 16.0 mph25.7 kmh 29.90 in1012.5 mb 0.06 in1.5 mm 0.00 in0.0 mm 0.21 in5.3 mm
11:00 PM 55.3°F12.9°C 53.0°F11.7°C 92% 6.0 mph SW9.7 kmh SW 12.0 mph19.3 kmh 29.89 in1012.2 mb 0.04 in1.0 mm 0.00 in0.0 mm 0.22 in5.6 mm
11:20 PM 55.5°F13.1°C 53.2°F11.8°C 92% 6.4 mph SW10.3 kmh SW 14.0 mph22.5 kmh 29.88 in1011.9 mb 0.03 in0.8 mm 0.00 in0.0 mm 0.22 in5.6 mm
11:40 PM 55.4°F13.0°C 53.1°F11.7°C 92% 4.3 mph SW6.9 kmh SW 9.0 mph14.5 kmh 29.88 in1011.9 mb 0.01 in0.3 mm 0.00 in0.0 mm 0.22 in5.6 mm